ADDS METAR Data INFO
IDs: Format: Raw Decoded Include TAF

Data at: 1204 UTC 21 Jun 2018

K0R4 211155Z AUTO 00000KT 7SM SCT016 SCT023 SCT070 25/24 A2991 RMK AO2 70028 T02480242 10255 20246
K0R4 211135Z AUTO 21003KT 7SM SCT006 BKN016 OVC070 25/24 A2991 RMK AO2 T02480242
K0R4 211115Z AUTO 28004KT 7SM -RA BKN008 OVC011 25/24 A2991 RMK AO2 T02470244
K0R4 211055Z AUTO 26004KT 7SM DZ BKN013 OVC023 25/25 A2991 RMK AO2 T02480245
K0R4 211035Z AUTO 00000KT 7SM SCT013 BKN023 OVC031 25/24 A2990 RMK AO2 T02470244
K0R4 211015Z AUTO 00000KT 7SM SCT031 BKN037 25/24 A2990 RMK AO2 LTG DSNT SW T02480244
K0R4 210955Z AUTO 21003KT 7SM -RA SCT037 SCT047 25/25 A2989 RMK AO2 T02490245
K0R4 210935Z AUTO 00000KT 7SM -RA CLR 25/24 A2989 RMK AO2 T02490244
K0R4 210915Z AUTO 22003KT 7SM CLR 25/24 A2990 RMK AO2 T02480244
K0R4 210855Z AUTO 00000KT 7SM CLR 25/24 A2990 RMK AO2 T02480243
K0R4 210835Z AUTO 00000KT 10SM CLR 25/24 A2990 RMK AO2 T02500243
K0R4 210815Z AUTO 18003KT 10SM CLR 25/24 A2989 RMK AO2 T02480241
K0R4 210755Z AUTO 00000KT 10SM CLR 25/24 A2990 RMK AO2 T02470241
K0R4 210735Z AUTO 24004KT 10SM CLR 25/24 A2991 RMK AO2 T02470242
K0R4 210715Z AUTO 22003KT 10SM CLR 25/24 A2991 RMK AO2 LTG DSNT SW T02500243
K0R4 210655Z AUTO 20003KT 10SM CLR 25/24 A2991 RMK AO2 LTG DSNT N AND SW T02520243
K0R4 210635Z AUTO 18005KT 10SM CLR 25/24 A2991 RMK AO2 T02540243
K0R4 210615Z AUTO 18005KT 10SM CLR 26/24 A2991 RMK AO2 T02550243
K0R4 210555Z AUTO 19004KT 10SM CLR 26/24 A2991 RMK AO2 60002 T02550243 10261 20246 403160235
K0R4 210535Z AUTO 19003KT 10SM CLR 25/25 A2992 RMK AO2 T02520246
K0R4 210515Z AUTO 18003KT 10SM CLR 26/25 A2991 RMK AO2 T02560246
K0R4 210455Z AUTO 16003KT 10SM CLR 26/25 A2992 RMK AO2 T02550245
K0R4 210435Z AUTO 00000KT 10SM CLR 26/25 A2992 RMK AO2 LTG DSNT SW AND NW T02550246
K0R4 210415Z AUTO 15004KT 10SM CLR 26/24 A2992 RMK AO2 LTG DSNT SW T02550244
K0R4 210355Z AUTO 00000KT 10SM CLR 26/25 A2992 RMK AO2 T02550245
K0R4 210335Z AUTO 00000KT 10SM CLR 25/24 A2991 RMK AO2 LTG DSNT SW T02490242
K0R4 210315Z AUTO 00000KT 10SM CLR 25/24 A2991 RMK AO2 T02480241
K0R4 210255Z AUTO 00000KT 10SM CLR 25/24 A2990 RMK AO2 60002 T02500241
K0R4 210235Z AUTO 00000KT 10SM CLR 25/24 A2990 RMK AO2 T02490241
K0R4 210215Z AUTO 10003KT 10SM CLR 25/24 A2989 RMK AO2 T02520240
K0R4 210155Z AUTO 10003KT 10SM CLR 25/24 A2989 RMK AO2 T02520241
K0R4 210135Z AUTO 00000KT 10SM CLR 25/24 A2989 RMK AO2 LTG DSNT NW T02530239
K0R4 210115Z AUTO 00000KT 10SM CLR 26/24 A2988 RMK AO2 T02550239
K0R4 210055Z AUTO 00000KT 10SM CLR 26/24 A2988 RMK AO2 P0002 T02550239
K0R4 210035Z AUTO 00000KT 10SM SCT050 SCT060 SCT080 26/23 A2988 RMK AO2 P0002 T02590232
K0R4 210015Z AUTO 25003KT 7SM RA SCT044 SCT050 BKN070 26/23 A2988 RMK AO2 P0002 T02570232
K0R4 202355Z AUTO 00000KT 10SM -RA SCT014 SCT028 BKN120 26/23 A2988 RMK AO2 P0021 60025 T02550232 10316 20243
K0R4 202335Z AUTO 18016G27KT 10SM VCTS SCT020 SCT027 SCT032 28/25 A2989 RMK AO2 LTG DSNT SE T02810245
K0R4 202315Z AUTO 12006KT 10SM CLR 29/25 A2987 RMK AO2 T02880251
K0R4 202255Z AUTO 12006KT 10SM CLR 29/25 A2987 RMK AO2 LTG DSNT NE T02900252
K0R4 202235Z AUTO 12005KT 10SM CLR 29/25 A2987 RMK AO2 LTG DSNT NE T02900252
K0R4 202215Z AUTO 10007KT 10SM CLR 29/25 A2988 RMK AO2 LTG DSNT NE T02860247
K0R4 202155Z AUTO 09006KT 10SM VCTS CLR 28/25 A2988 RMK AO2 LTG DSNT N AND NE P0004 T02800245
K0R4 202135Z AUTO 10003KT 10SM VCTS SCT070 SCT080 26/24 A2988 RMK AO2 LTG DSNT NE P0004 T02610239
K0R4 202115Z AUTO 10003KT 10SM VCTS SCT037 SCT048 BKN080 26/24 A2988 RMK AO2 LTG DSNT NE E AND W P0004 T02580236
K0R4 202055Z AUTO 15012G17KT 7SM RA SCT035 SCT047 BKN065 27/23 A2990 RMK AO2 LTG DSNT E T02700226
K0R4 202035Z AUTO 16003KT 10SM SCT120 31/25 A2989 RMK AO2 LTG DSNT E THRU S T03140245
K0R4 202015Z AUTO 17005KT 10SM CLR 31/24 A2989 RMK AO2 LTG DSNT SE AND S T03050242
K0R4 201955Z AUTO 18005KT 10SM CLR 31/25 A2990 RMK AO2 LTG DSNT NE T03070248
K0R4 201935Z AUTO 00000KT 10SM SCT024 31/25 A2990 RMK AO2 LTG DSNT SE T03090246
K0R4 201915Z AUTO 00000KT 10SM SCT024 31/25 A2991 RMK AO2 LTG DSNT NE AND SE T03050250
K0R4 201855Z AUTO 00000KT 10SM SCT110 30/25 A2992 RMK AO2 LTG DSNT NE T03000245
K0R4 201835Z AUTO 00000KT 10SM BKN110 30/25 A2993 RMK AO2 LTG DSNT SE T03010252
K0R4 201815Z AUTO 19005KT 10SM SCT026 SCT110 30/25 A2994 RMK AO2 T02970248
K0R4 201755Z AUTO 14003KT 10SM SCT110 30/25 A2994 RMK AO2 60001 T02990249 10300 20245
K0R4 201735Z AUTO 15006KT 10SM SCT023 BKN110 30/25 A2995 RMK AO2 T02950250
K0R4 201715Z AUTO 15004KT 10SM SCT023 SCT030 BKN110 29/25 A2996 RMK AO2 T02900245
K0R4 201655Z AUTO 14004KT 10SM SCT021 SCT030 BKN110 29/25 A2996 RMK AO2 T02900249
K0R4 201635Z AUTO 16004KT 10SM SCT016 BKN110 29/25 A2996 RMK AO2 T02870253
K0R4 201615Z AUTO 16004KT 10SM OVC110 28/25 A2996 RMK AO2 T02820252
K0R4 201555Z AUTO 17004KT 10SM SCT120 28/25 A2997 RMK AO2 T02810252
K0R4 201535Z AUTO 16004KT 10SM SCT013 SCT018 28/25 A2996 RMK AO2 T02770250
K0R4 201515Z AUTO 14004KT 10SM CLR 28/25 A2996 RMK AO2 T02760252
K0R4 201455Z AUTO 14003KT 10SM SCT010 27/25 A2996 RMK AO2 60001 T02730253
K0R4 201435Z AUTO 13006KT 10SM CLR 27/25 A2996 RMK AO2 T02700253
K0R4 201415Z AUTO 13004KT 10SM CLR 27/25 A2996 RMK AO2 T02650250
K0R4 201355Z AUTO 13005KT 10SM CLR 26/25 A2996 RMK AO2 P0001 T02620251
K0R4 201335Z AUTO 14005KT 10SM CLR 26/25 A2996 RMK AO2 T02590249
K0R4 201315Z AUTO 14004KT 7SM CLR 26/25 A2996 RMK AO2 T02560248
K0R4 201255Z AUTO 12003KT 7SM SCT005 25/25 A2995 RMK AO2 T02540246
K0R4 201235Z AUTO 00000KT 7SM OVC007 25/24 A2995 RMK AO2 T02510244
K0R4 201215Z AUTO 06003KT 7SM BKN007 OVC110 25/24 A2995 RMK AO2 T02490241
K0R4 201155Z AUTO 00000KT 7SM SCT007 BKN110 25/24 A2995 RMK AO2 70035 T02450239 10245 20235
K0R4 201135Z AUTO 05003KT 7SM SCT007 SCT012 BKN120 24/24 A2995 RMK AO2 T02420237
K0R4 201115Z AUTO 00000KT 7SM SCT007 BKN016 BKN120 24/24 A2995 RMK AO2 T02410236
K0R4 201055Z AUTO 00000KT 10SM BKN015 24/24 A2994 RMK AO2 T02410236
K0R4 201035Z AUTO 00000KT 10SM BKN017 BKN120 24/24 A2994 RMK AO2 T02420236
K0R4 201015Z AUTO 00000KT 10SM BKN017 BKN120 24/24 A2993 RMK AO2 T02410235
K0R4 200955Z AUTO 00000KT 10SM SCT017 SCT120 24/24 A2993 RMK AO2 T02410235
K0R4 200935Z AUTO 00000KT 10SM SCT120 24/24 A2993 RMK AO2 T02420235
K0R4 200915Z AUTO 00000KT 10SM CLR 24/23 A2994 RMK AO2 T02410234
K0R4 200855Z AUTO 00000KT 10SM CLR 24/23 A2993 RMK AO2 T02420234
K0R4 200835Z AUTO 00000KT 10SM CLR 24/23 A2993 RMK AO2 T02400232
K0R4 200815Z AUTO 00000KT 10SM CLR 24/23 A2994 RMK AO2 T02400232
K0R4 200755Z AUTO 06003KT 10SM CLR 24/23 A2994 RMK AO2 T02380231
K0R4 200735Z AUTO 04003KT 10SM CLR 24/23 A2994 RMK AO2 T02380230
K0R4 200715Z AUTO 00000KT 10SM CLR 24/23 A2995 RMK AO2 T02370230
K0R4 200655Z AUTO 05003KT 10SM CLR 24/23 A2995 RMK AO2 T02360230
K0R4 200630Z AUTO 05003KT 10SM CLR 24/23 A2996 RMK AO2 T02360229
K0R4 200615Z AUTO 00000KT 10SM CLR 24/23 A2996 RMK AO2 T02360229
K0R4 200555Z AUTO 00000KT 10SM CLR 24/23 A2996 RMK AO2 T02360229 10240 20235 403210232
K0R4 200535Z AUTO 00000KT 10SM CLR 24/23 A2997 RMK AO2 T02380230
K0R4 200515Z AUTO 00000KT 10SM CLR 24/23 A2997 RMK AO2 T02360229
K0R4 200455Z AUTO 10003KT 10SM CLR 24/23 A2997 RMK AO2 T02360230
K0R4 200435Z AUTO 00000KT 10SM CLR 24/23 A2997 RMK AO2 T02350231
K0R4 200415Z AUTO 00000KT 10SM CLR 24/23 A2997 RMK AO2 T02370231
K0R4 200355Z AUTO 00000KT 10SM CLR 24/23 A2997 RMK AO2 T02360230
K0R4 200335Z AUTO 00000KT 10SM CLR 24/23 A2997 RMK AO2 T02360231
K0R4 200315Z AUTO 08003KT 10SM CLR 24/23 A2997 RMK AO2 T02360231
K0R4 200255Z AUTO 00000KT 10SM CLR 24/23 A2997 RMK AO2 T02350231
K0R4 200235Z AUTO 00000KT 10SM CLR 24/23 A2996 RMK AO2 T02350231
K0R4 200215Z AUTO 04003KT 10SM CLR 24/23 A2996 RMK AO2 T02350231
K0R4 200155Z AUTO 00000KT 10SM CLR 24/23 A2996 RMK AO2 T02360232
K0R4 200135Z AUTO 00000KT 10SM CLR 24/23 A2996 RMK AO2 T02360232
K0R4 200115Z AUTO 00000KT 10SM CLR 24/23 A2996 RMK AO2 T02360232
K0R4 200055Z AUTO 00000KT 10SM CLR 24/23 A2996 RMK AO2 T02370231
K0R4 200035Z AUTO 00000KT 10SM CLR 24/23 A2996 RMK AO2 T02370231
K0R4 200015Z AUTO 04003KT 10SM CLR 24/23 A2997 RMK AO2 T02370231